Time;durP1;ratioP1;P1;durP2;ratioP2;P2;SDS_P1;SDS_P2;PMS_P1;PMS_P2;Temp;Humidity;BMP_temperature;BMP_pressure;BME280_temperature;BME280_humidity;BME280_pressure;Samples;Min_cycle;Max_cycle;Signal;HPM_P1;HPM_P2
2022/06/18 00:01:35;;;;;;;13.43;9.63;;;;;;;;;;5090125;28;20078;-75
2022/06/18 00:04:07;;;;;;;12.07;8.90;;;;;;;;;;5091381;28;20729;-74
2022/06/18 00:06:50;;;;;;;11.40;10.00;;;;;;;;;;5091370;28;20086;-75
2022/06/18 00:09:20;;;;;;;13.15;10.85;;;;;;;;;;5094761;28;20056;-75
2022/06/18 00:14:38;;;;;;;15.45;11.43;;;;;;;;;;5095066;28;20121;-74
2022/06/18 00:17:16;;;;;;;17.13;12.02;;;;;;;;;;5094828;28;20052;-75
2022/06/18 00:19:44;;;;;;;14.35;11.52;;;;;;;;;;5093418;28;20048;-75
2022/06/18 00:22:14;;;;;;;17.73;12.38;;;;;;;;;;5094694;28;20105;-74
2022/06/18 00:24:41;;;;;;;19.35;13.35;;;;;;;;;;5094443;28;20637;-75
2022/06/18 00:27:10;;;;;;;18.77;12.73;;;;;;;;;;5094563;28;20068;-75
2022/06/18 00:29:36;;;;;;;16.95;11.85;;;;;;;;;;5094467;28;20084;-75
2022/06/18 00:32:03;;;;;;;17.20;12.67;;;;;;;;;;5094699;28;20076;-74
2022/06/18 00:34:29;;;;;;;16.60;11.93;;;;;;;;;;5094736;28;20059;-75
2022/06/18 00:36:57;;;;;;;18.77;12.40;;;;;;;;;;5094228;28;20087;-75
2022/06/18 00:39:23;;;;;;;17.90;12.82;;;;;;;;;;5094314;28;20080;-70
2022/06/18 00:41:53;;;;;;;15.30;11.50;;;;;;;;;;5094216;28;20549;-75
2022/06/18 00:44:25;;;;;;;17.30;11.40;;;;;;;;;;5094753;28;20381;-74
2022/06/18 00:46:56;;;;;;;16.00;11.35;;;;;;;;;;5094602;28;20080;-75
2022/06/18 00:49:30;;;;;;;16.88;12.23;;;;;;;;;;5094106;28;20083;-75
2022/06/18 00:52:09;;;;;;;13.93;11.05;;;;;;;;;;5094095;28;20084;-75
2022/06/18 00:54:42;;;;;;;13.85;10.27;;;;;;;;;;5093711;28;20052;-74
2022/06/18 00:57:12;;;;;;;12.15;9.57;;;;;;;;;;5094117;28;20084;-74
2022/06/18 00:59:45;;;;;;;12.57;9.32;;;;;;;;;;5094273;28;20510;-74
2022/06/18 01:02:21;;;;;;;12.82;10.10;;;;;;;;;;5093807;28;20087;-75
2022/06/18 01:04:48;;;;;;;16.27;10.65;;;;;;;;;;5094377;28;20135;-75
2022/06/18 01:07:32;;;;;;;14.80;10.45;;;;;;;;;;5091981;28;20082;-74
2022/06/18 01:09:59;;;;;;;14.07;11.00;;;;;;;;;;5082406;28;20052;-74
2022/06/18 01:12:26;;;;;;;15.90;11.82;;;;;;;;;;5093028;28;20051;-74
2022/06/18 01:15:00;;;;;;;17.77;11.27;;;;;;;;;;5092497;28;20070;-75
2022/06/18 01:17:29;;;;;;;16.77;11.65;;;;;;;;;;5093786;28;20397;-75
2022/06/18 01:19:55;;;;;;;15.35;11.68;;;;;;;;;;5092696;28;20044;-74
2022/06/18 01:22:27;;;;;;;15.77;10.95;;;;;;;;;;5094133;28;20472;-75
2022/06/18 01:24:55;;;;;;;15.40;11.55;;;;;;;;;;5092305;28;20074;-75
2022/06/18 01:27:21;;;;;;;18.83;13.02;;;;;;;;;;5093368;28;20074;-75
2022/06/18 01:29:48;;;;;;;19.17;13.45;;;;;;;;;;5093585;28;20090;-75
2022/06/18 01:32:15;;;;;;;18.17;12.43;;;;;;;;;;5093255;28;20048;-75
2022/06/18 01:34:42;;;;;;;;;;;;;;;;;;5093947;28;20048;-74
2022/06/18 01:37:08;;;;;;;18.13;12.60;;;;;;;;;;5091871;28;19962;-75
2022/06/18 01:39:36;;;;;;;17.90;12.73;;;;;;;;;;5093386;28;20044;-75
2022/06/18 01:42:09;;;;;;;18.15;13.05;;;;;;;;;;5092999;28;20305;-75
2022/06/18 01:44:41;;;;;;;17.90;12.88;;;;;;;;;;5093020;28;20080;-75
2022/06/18 01:47:21;;;;;;;17.38;11.82;;;;;;;;;;5092974;28;20052;-74
2022/06/18 01:49:53;;;;;;;16.30;11.88;;;;;;;;;;5093271;28;20052;-74
2022/06/18 01:52:22;;;;;;;17.10;13.10;;;;;;;;;;5092861;28;20495;-75
2022/06/18 01:54:59;;;;;;;19.15;13.05;;;;;;;;;;5093447;28;20083;-75
2022/06/18 01:57:33;;;;;;;17.60;13.93;;;;;;;;;;5091415;28;20079;-75
2022/06/18 02:00:29;;;;;;;18.15;13.73;;;;;;;;;;5092723;28;20052;-75
2022/06/18 02:02:56;;;;;;;18.40;12.68;;;;;;;;;;5074485;28;20079;-75
2022/06/18 02:05:23;;;;;;;15.23;12.80;;;;;;;;;;5092894;28;20051;-74
2022/06/18 02:07:50;;;;;;;16.33;12.43;;;;;;;;;;5092796;28;20043;-75
2022/06/18 02:10:18;;;;;;;18.02;13.05;;;;;;;;;;5092856;28;20091;-75
2022/06/18 02:12:45;;;;;;;17.77;12.10;;;;;;;;;;5092403;28;20107;-75
2022/06/18 02:15:13;;;;;;;16.25;12.10;;;;;;;;;;5092500;28;20048;-75
2022/06/18 02:17:40;;;;;;;17.65;12.85;;;;;;;;;;5092275;28;20083;-75
2022/06/18 02:20:12;;;;;;;16.45;12.73;;;;;;;;;;5092600;28;20047;-75
2022/06/18 02:22:43;;;;;;;17.77;12.15;;;;;;;;;;5091164;28;20044;-75
2022/06/18 02:25:11;;;;;;;18.58;13.02;;;;;;;;;;5092507;28;20040;-75
2022/06/18 02:27:39;;;;;;;16.80;13.50;;;;;;;;;;5092554;28;20075;-75
2022/06/18 02:30:12;;;;;;;17.92;14.07;;;;;;;;;;5092342;28;20090;-75
2022/06/18 02:32:45;;;;;;;18.73;13.75;;;;;;;;;;5092116;28;20079;-75
2022/06/18 02:35:12;;;;;;;20.40;14.23;;;;;;;;;;5090988;28;20552;-75
2022/06/18 02:37:39;;;;;;;17.83;13.57;;;;;;;;;;5090706;28;20051;-75
2022/06/18 02:40:20;;;;;;;19.60;14.07;;;;;;;;;;5092000;28;20507;-75
2022/06/18 02:42:48;;;;;;;19.08;13.95;;;;;;;;;;5092328;28;20079;-75
2022/06/18 02:45:15;;;;;;;17.25;12.32;;;;;;;;;;5092192;28;20044;-75
2022/06/18 02:47:41;;;;;;;;;;;;;;;;;;5092665;28;20082;-75
2022/06/18 02:50:10;;;;;;;19.15;12.73;;;;;;;;;;5091794;28;20391;-75
2022/06/18 02:52:39;;;;;;;16.85;13.43;;;;;;;;;;5092114;28;20459;-75
2022/06/18 02:55:11;;;;;;;17.95;13.60;;;;;;;;;;5091807;28;20079;-75
2022/06/18 02:57:38;;;;;;;20.40;14.57;;;;;;;;;;5091766;28;20495;-75
2022/06/18 03:00:08;;;;;;;19.17;14.65;;;;;;;;;;5092108;28;20459;-75
2022/06/18 03:02:35;;;;;;;16.92;13.60;;;;;;;;;;5092072;28;20044;-75
2022/06/18 03:05:02;;;;;;;18.03;13.93;;;;;;;;;;5091706;28;20059;-75
2022/06/18 03:07:28;;;;;;;19.45;14.02;;;;;;;;;;5091701;28;20491;-75
2022/06/18 03:12:40;;;;;;;22.27;14.82;;;;;;;;;;5091739;28;20098;-75
2022/06/18 03:15:06;;;;;;;19.77;13.77;;;;;;;;;;5091750;28;20526;-74
2022/06/18 03:17:33;;;;;;;20.02;14.80;;;;;;;;;;5091356;28;20565;-75
2022/06/18 03:20:01;;;;;;;23.00;14.65;;;;;;;;;;5091543;28;20559;-74
2022/06/18 03:22:28;;;;;;;24.83;14.00;;;;;;;;;;5091648;28;20044;-74
2022/06/18 03:24:54;;;;;;;19.63;13.32;;;;;;;;;;5090266;28;20080;-74
2022/06/18 03:27:20;;;;;;;19.90;13.77;;;;;;;;;;5091843;28;20083;-74
2022/06/18 03:29:49;;;;;;;20.55;13.77;;;;;;;;;;5091460;28;20438;-74
2022/06/18 03:32:16;;;;;;;22.58;14.13;;;;;;;;;;5091760;28;20135;-74
2022/06/18 03:34:43;;;;;;;21.57;15.17;;;;;;;;;;5091589;28;20048;-74
2022/06/18 03:37:09;;;;;;;21.98;14.90;;;;;;;;;;5090186;28;20058;-75
2022/06/18 03:39:36;;;;;;;19.00;14.07;;;;;;;;;;5091418;28;20048;-74
2022/06/18 03:42:03;;;;;;;18.63;13.13;;;;;;;;;;5091678;28;20074;-74
2022/06/18 03:44:30;;;;;;;21.77;14.50;;;;;;;;;;5095633;28;20071;-75
2022/06/18 03:46:57;;;;;;;19.90;13.85;;;;;;;;;;5095668;28;20054;-75
2022/06/18 03:49:23;;;;;;;22.17;14.50;;;;;;;;;;5095336;28;20092;-75
2022/06/18 03:51:50;;;;;;;23.67;14.55;;;;;;;;;;5095399;28;20040;-75
2022/06/18 03:54:16;;;;;;;22.25;14.18;;;;;;;;;;5095349;28;20056;-75
2022/06/18 03:56:42;;;;;;;20.55;13.77;;;;;;;;;;5094853;28;20555;-75
2022/06/18 03:59:09;;;;;;;19.17;13.20;;;;;;;;;;5095369;28;20082;-75
2022/06/18 04:01:40;;;;;;;22.02;13.68;;;;;;;;;;5094967;28;20080;-75
2022/06/18 04:04:07;;;;;;;20.10;13.52;;;;;;;;;;5095038;28;20048;-75
2022/06/18 04:06:34;;;;;;;21.45;13.88;;;;;;;;;;5095015;28;20074;-75
2022/06/18 04:09:00;;;;;;;20.67;13.23;;;;;;;;;;5094767;28;20629;-75
2022/06/18 04:11:27;;;;;;;19.95;13.77;;;;;;;;;;5094840;28;20083;-75
2022/06/18 04:13:54;;;;;;;20.85;13.20;;;;;;;;;;5095069;28;20060;-75
2022/06/18 04:16:20;;;;;;;18.05;12.68;;;;;;;;;;5094958;28;20086;-74
2022/06/18 04:18:47;;;;;;;21.17;13.07;;;;;;;;;;5094804;28;20456;-75
2022/06/18 04:21:14;;;;;;;20.23;13.75;;;;;;;;;;5094696;28;20553;-75
2022/06/18 04:23:41;;;;;;;21.05;13.55;;;;;;;;;;5094639;28;20080;-75
2022/06/18 04:26:08;;;;;;;19.40;12.23;;;;;;;;;;5094830;28;20082;-75
2022/06/18 04:28:35;;;;;;;17.75;12.40;;;;;;;;;;5094853;28;20075;-75
2022/06/18 04:31:01;;;;;;;18.38;12.73;;;;;;;;;;5094758;28;20044;-75
2022/06/18 04:33:28;;;;;;;18.33;12.57;;;;;;;;;;5094553;28;20055;-75
2022/06/18 04:35:55;;;;;;;18.90;12.57;;;;;;;;;;5093021;28;20499;-74
2022/06/18 04:38:22;;;;;;;17.33;12.55;;;;;;;;;;5094309;28;20060;-75
2022/06/18 04:40:48;;;;;;;19.40;12.70;;;;;;;;;;5094498;28;20055;-75
2022/06/18 04:43:24;;;;;;;17.48;12.10;;;;;;;;;;5094427;28;20040;-75
2022/06/18 04:45:50;;;;;;;16.70;11.90;;;;;;;;;;5094228;28;20484;-75
2022/06/18 04:48:17;;;;;;;15.68;11.23;;;;;;;;;;5094469;28;20088;-75
2022/06/18 04:50:43;;;;;;;16.83;10.98;;;;;;;;;;5094192;28;20091;-75
2022/06/18 04:53:10;;;;;;;14.23;11.00;;;;;;;;;;5094551;28;20048;-75
2022/06/18 04:55:37;;;;;;;16.88;11.18;;;;;;;;;;5092967;28;20052;-75
2022/06/18 04:58:04;;;;;;;17.63;11.02;;;;;;;;;;5092654;28;20048;-75
2022/06/18 05:00:31;;;;;;;16.80;11.25;;;;;;;;;;5094210;28;20079;-75
2022/06/18 05:02:57;;;;;;;14.90;10.85;;;;;;;;;;5094248;28;20119;-75
2022/06/18 05:05:25;;;;;;;15.90;10.73;;;;;;;;;;5093781;28;20506;-75
2022/06/18 05:07:53;;;;;;;14.43;10.65;;;;;;;;;;5092778;28;20051;-75
2022/06/18 05:10:20;;;;;;;13.98;10.90;;;;;;;;;;5093620;28;20102;-75
2022/06/18 05:12:46;;;;;;;13.57;10.37;;;;;;;;;;5093917;28;20087;-75
2022/06/18 05:15:12;;;;;;;11.50;8.88;;;;;;;;;;5093869;28;20112;-75
2022/06/18 05:17:42;;;;;;;11.52;8.52;;;;;;;;;;5093838;28;20128;-75
2022/06/18 05:20:10;;;;;;;10.13;7.82;;;;;;;;;;5093779;28;20048;-75
2022/06/18 05:22:37;;;;;;;9.57;7.82;;;;;;;;;;5093429;28;20055;-75
2022/06/18 05:25:03;;;;;;;8.73;7.32;;;;;;;;;;5093791;28;20044;-75
2022/06/18 05:27:34;;;;;;;9.33;8.00;;;;;;;;;;5093492;28;20090;-75
2022/06/18 05:30:00;;;;;;;11.23;8.23;;;;;;;;;;5093865;28;20094;-75
2022/06/18 05:32:27;;;;;;;10.40;7.70;;;;;;;;;;5093529;28;20104;-75
2022/06/18 05:34:53;;;;;;;9.02;7.85;;;;;;;;;;5093212;28;20534;-75
2022/06/18 05:37:21;;;;;;;8.95;7.35;;;;;;;;;;5093084;28;20055;-75
2022/06/18 05:39:48;;;;;;;10.32;7.65;;;;;;;;;;5093368;28;20473;-75
2022/06/18 05:42:14;;;;;;;10.93;8.20;;;;;;;;;;5093442;28;20131;-75
2022/06/18 05:44:41;;;;;;;9.73;8.30;;;;;;;;;;5092937;28;20048;-75
2022/06/18 05:47:16;;;;;;;11.27;8.73;;;;;;;;;;5093092;28;20044;-75
2022/06/18 05:49:43;;;;;;;10.70;8.45;;;;;;;;;;5093234;28;20079;-75
2022/06/18 05:52:09;;;;;;;10.67;8.70;;;;;;;;;;5092977;28;20083;-75
2022/06/18 05:54:36;;;;;;;9.93;8.48;;;;;;;;;;5093072;28;20470;-75
2022/06/18 05:57:03;;;;;;;10.40;8.30;;;;;;;;;;5092546;28;20052;-75
2022/06/18 05:59:30;;;;;;;11.63;8.45;;;;;;;;;;5092818;28;20504;-75
2022/06/18 06:01:56;;;;;;;10.60;8.70;;;;;;;;;;5093942;28;20185;-75
2022/06/18 06:04:23;;;;;;;10.87;8.80;;;;;;;;;;5092636;28;20052;-75
2022/06/18 06:06:51;;;;;;;11.70;9.75;;;;;;;;;;5092406;28;20086;-75
2022/06/18 06:11:28;;;;;;;11.35;9.35;;;;;;;;;;5092943;28;20436;-75
2022/06/18 06:12:05;;;;;;;12.90;9.57;;;;;;;;;;5092869;28;20114;-76
2022/06/18 06:14:31;;;;;;;14.10;10.48;;;;;;;;;;5092474;28;20504;-75
2022/06/18 06:16:57;;;;;;;12.32;10.05;;;;;;;;;;5092658;28;20079;-75
2022/06/18 06:19:24;;;;;;;11.77;9.38;;;;;;;;;;5092444;28;20523;-75
2022/06/18 06:21:50;;;;;;;14.93;11.10;;;;;;;;;;5092666;28;20097;-75
2022/06/18 06:24:17;;;;;;;12.77;10.00;;;;;;;;;;5090955;28;20087;-75
2022/06/18 06:26:48;;;;;;;14.07;9.77;;;;;;;;;;5093061;28;20131;-75
2022/06/18 06:29:15;;;;;;;14.23;10.50;;;;;;;;;;5090943;28;20079;-75
2022/06/18 06:31:41;;;;;;;13.23;10.13;;;;;;;;;;5091095;28;20055;-75
2022/06/18 06:34:08;;;;;;;13.10;10.87;;;;;;;;;;5092105;28;20097;-75
2022/06/18 06:36:34;;;;;;;14.05;10.80;;;;;;;;;;5092009;28;20335;-75
2022/06/18 06:39:01;;;;;;;13.55;11.02;;;;;;;;;;5091178;28;20472;-75
2022/06/18 06:41:28;;;;;;;15.03;10.90;;;;;;;;;;5092317;28;20048;-75
2022/06/18 06:43:54;;;;;;;;;;;;;;;;;;5092392;28;20320;-75
2022/06/18 06:46:25;;;;;;;15.00;11.25;;;;;;;;;;5091870;28;20495;-74
2022/06/18 06:48:52;;;;;;;18.20;12.40;;;;;;;;;;5092018;28;20510;-74
2022/06/18 06:51:22;;;;;;;17.65;12.30;;;;;;;;;;5091948;28;20079;-74
2022/06/18 06:53:49;;;;;;;16.42;11.93;;;;;;;;;;5078743;28;20086;-75
2022/06/18 06:59:02;;;;;;;17.13;11.65;;;;;;;;;;5091847;28;20039;-74
2022/06/18 07:01:29;;;;;;;15.82;12.50;;;;;;;;;;5092098;28;20044;-75
2022/06/18 07:03:55;;;;;;;16.08;12.23;;;;;;;;;;5091117;28;20079;-75
2022/06/18 07:06:22;;;;;;;16.20;11.60;;;;;;;;;;5091632;28;20087;-74
2022/06/18 07:08:48;;;;;;;14.93;12.48;;;;;;;;;;5091872;28;20074;-75
2022/06/18 07:11:15;;;;;;;15.75;12.40;;;;;;;;;;5091502;28;20079;-75
2022/06/18 07:13:41;;;;;;;17.83;13.33;;;;;;;;;;5091370;28;20516;-75
2022/06/18 07:16:09;;;;;;;16.65;12.90;;;;;;;;;;5091643;28;20044;-76
2022/06/18 07:18:36;;;;;;;17.75;12.20;;;;;;;;;;5094640;28;20070;-76
2022/06/18 07:21:04;;;;;;;19.63;13.73;;;;;;;;;;5095076;28;20048;-75
2022/06/18 07:23:31;;;;;;;19.75;13.80;;;;;;;;;;5094060;28;20079;-76
2022/06/18 07:25:57;;;;;;;21.63;14.07;;;;;;;;;;5093949;28;20495;-74
2022/06/18 07:28:24;;;;;;;19.70;13.87;;;;;;;;;;5094761;28;20134;-73
2022/06/18 07:30:50;;;;;;;20.88;13.38;;;;;;;;;;5095221;28;20126;-75
2022/06/18 07:33:18;;;;;;;19.13;13.50;;;;;;;;;;5095455;28;20157;-76
2022/06/18 07:35:45;;;;;;;17.73;13.65;;;;;;;;;;5095088;28;20084;-75
2022/06/18 07:38:11;;;;;;;22.55;14.68;;;;;;;;;;5095155;28;20083;-76
2022/06/18 07:40:44;;;;;;;21.30;14.93;;;;;;;;;;5094572;28;20040;-76
2022/06/18 07:43:14;;;;;;;22.52;15.98;;;;;;;;;;5094111;28;20127;-76
2022/06/18 07:45:41;;;;;;;38.35;29.27;;;;;;;;;;5095634;28;20105;-75
2022/06/18 07:48:07;;;;;;;30.17;23.37;;;;;;;;;;5095177;28;20051;-75
2022/06/18 07:50:34;;;;;;;26.33;18.63;;;;;;;;;;5095613;28;20331;-75
2022/06/18 07:53:00;;;;;;;26.15;17.65;;;;;;;;;;5095501;28;20087;-76
2022/06/18 07:55:27;;;;;;;30.92;18.75;;;;;;;;;;5095225;28;20052;-69
2022/06/18 07:57:54;;;;;;;25.85;17.90;;;;;;;;;;5095084;28;20502;-77
2022/06/18 08:00:21;;;;;;;28.60;19.00;;;;;;;;;;5095216;28;20137;-70
2022/06/18 08:02:48;;;;;;;25.23;18.38;;;;;;;;;;5094970;28;20105;-69
2022/06/18 08:05:20;;;;;;;24.27;17.73;;;;;;;;;;5095349;28;20066;-70
2022/06/18 08:07:46;;;;;;;26.42;17.77;;;;;;;;;;5094697;28;20056;-70
2022/06/18 08:10:34;;;;;;;26.50;18.27;;;;;;;;;;5094464;28;20052;-71
2022/06/18 08:13:00;;;;;;;;;;;;;;;;;;5095349;28;20075;-71
2022/06/18 08:15:27;;;;;;;28.13;18.67;;;;;;;;;;5094434;28;19976;-70
2022/06/18 08:17:53;;;;;;;27.97;19.37;;;;;;;;;;5094962;28;20090;-77
2022/06/18 08:20:41;;;;;;;31.70;18.60;;;;;;;;;;5094845;28;20059;-77
2022/06/18 08:23:08;;;;;;;28.83;19.25;;;;;;;;;;5094867;28;20082;-78
2022/06/18 08:25:37;;;;;;;27.27;17.33;;;;;;;;;;5093933;28;20075;-75
2022/06/18 08:28:04;;;;;;;25.60;16.95;;;;;;;;;;5093281;28;20051;-78
2022/06/18 08:30:31;;;;;;;26.42;17.20;;;;;;;;;;5094485;28;20113;-77
2022/06/18 08:32:57;;;;;;;25.67;17.83;;;;;;;;;;5094625;28;20114;-73
2022/06/18 08:35:24;;;;;;;27.00;15.77;;;;;;;;;;5094713;28;20103;-69
2022/06/18 08:37:51;;;;;;;23.23;16.27;;;;;;;;;;5091893;28;20052;-77
2022/06/18 08:40:45;;;;;;;21.90;15.73;;;;;;;;;;5094633;28;20044;-71
2022/06/18 08:43:23;;;;;;;21.35;14.50;;;;;;;;;;5093843;28;20059;-76
2022/06/18 08:45:52;;;;;;;19.50;13.77;;;;;;;;;;5093598;28;20093;-78
2022/06/18 08:48:25;;;;;;;17.67;12.88;;;;;;;;;;5093579;28;20090;-75
2022/06/18 08:50:56;;;;;;;16.35;11.80;;;;;;;;;;5092298;28;20131;-75
2022/06/18 08:53:38;;;;;;;14.05;10.77;;;;;;;;;;5093834;28;20055;-75
2022/06/18 08:56:10;;;;;;;14.65;9.88;;;;;;;;;;5093758;28;20093;-75
2022/06/18 08:58:55;;;;;;;12.90;8.95;;;;;;;;;;5093445;28;20512;-75
2022/06/18 09:01:22;;;;;;;11.43;8.00;;;;;;;;;;5093768;28;20079;-75
2022/06/18 09:03:51;;;;;;;9.97;7.83;;;;;;;;;;5093400;28;20214;-75
2022/06/18 09:06:36;;;;;;;10.95;8.43;;;;;;;;;;5093710;28;20047;-75
2022/06/18 09:09:09;;;;;;;11.30;8.13;;;;;;;;;;5093616;28;20052;-75
2022/06/18 09:11:40;;;;;;;11.70;7.80;;;;;;;;;;5093883;28;20044;-75
2022/06/18 09:14:15;;;;;;;10.95;7.72;;;;;;;;;;5093518;28;20047;-75
2022/06/18 09:16:42;;;;;;;12.15;8.00;;;;;;;;;;5093494;28;20052;-75
2022/06/18 09:19:11;;;;;;;11.63;7.57;;;;;;;;;;5093682;28;20131;-76
2022/06/18 09:21:43;;;;;;;15.75;8.68;;;;;;;;;;5093484;28;20484;-76
2022/06/18 09:24:11;;;;;;;10.27;8.32;;;;;;;;;;5091730;28;20812;-76
2022/06/18 09:26:40;;;;;;;14.38;7.88;;;;;;;;;;5092951;28;20048;-76
2022/06/18 09:29:14;;;;;;;10.23;8.07;;;;;;;;;;5093137;28;20048;-76
2022/06/18 09:31:42;;;;;;;11.82;7.90;;;;;;;;;;5092959;28;20404;-74
2022/06/18 09:34:11;;;;;;;10.98;6.90;;;;;;;;;;5093270;28;20048;-76
2022/06/18 09:36:42;;;;;;;11.45;6.95;;;;;;;;;;5092970;28;20579;-76
2022/06/18 09:39:23;;;;;;;9.05;6.38;;;;;;;;;;5093446;28;20095;-76
2022/06/18 09:41:56;;;;;;;9.90;6.10;;;;;;;;;;5092764;28;20082;-76
2022/06/18 09:44:28;;;;;;;11.38;6.28;;;;;;;;;;5093102;28;20103;-76
2022/06/18 09:47:00;;;;;;;8.70;6.35;;;;;;;;;;5093269;28;20040;-72
2022/06/18 09:49:28;;;;;;;7.97;5.88;;;;;;;;;;5093305;28;20083;-72
2022/06/18 09:52:03;;;;;;;8.43;5.47;;;;;;;;;;5092844;28;20055;-72
2022/06/18 09:54:38;;;;;;;9.18;5.00;;;;;;;;;;5092990;28;20043;-72
2022/06/18 09:57:05;;;;;;;8.07;5.22;;;;;;;;;;5092296;28;20044;-72
2022/06/18 09:59:40;;;;;;;9.80;5.03;;;;;;;;;;5092735;28;20040;-70
2022/06/18 10:02:18;;;;;;;6.82;4.75;;;;;;;;;;5089452;28;20109;-69
2022/06/18 10:07:33;;;;;;;6.47;4.80;;;;;;;;;;5083492;28;20044;-71
2022/06/18 10:10:09;;;;;;;10.93;4.95;;;;;;;;;;5092233;28;20075;-70
2022/06/18 10:12:37;;;;;;;9.03;4.50;;;;;;;;;;5092421;28;20105;-70
2022/06/18 10:15:06;;;;;;;8.23;4.40;;;;;;;;;;5092149;28;20276;-72
2022/06/18 10:17:32;;;;;;;7.95;4.10;;;;;;;;;;5091993;28;20570;-72
2022/06/18 10:20:17;;;;;;;9.30;5.05;;;;;;;;;;5092092;28;20102;-70
2022/06/18 10:22:56;;;;;;;10.93;5.35;;;;;;;;;;5091658;28;20044;-71
2022/06/18 10:25:43;;;;;;;9.23;5.97;;;;;;;;;;5089387;28;20048;-71
2022/06/18 10:28:10;;;;;;;8.15;5.38;;;;;;;;;;5090710;28;20044;-71
2022/06/18 10:30:36;;;;;;;10.77;4.80;;;;;;;;;;5091727;28;20100;-71
2022/06/18 10:33:09;;;;;;;9.05;3.67;;;;;;;;;;5086418;28;20087;-71
2022/06/18 10:35:43;;;;;;;11.30;3.92;;;;;;;;;;5091872;28;20091;-70
2022/06/18 10:38:09;;;;;;;7.28;3.40;;;;;;;;;;5091365;28;20052;-71
2022/06/18 10:40:41;;;;;;;7.15;3.75;;;;;;;;;;5091342;28;20105;-71
2022/06/18 10:43:28;;;;;;;6.07;3.20;;;;;;;;;;5088170;28;20137;-73
2022/06/18 10:46:14;;;;;;;9.52;3.67;;;;;;;;;;5091731;28;20051;-73
2022/06/18 10:48:58;;;;;;;7.10;4.05;;;;;;;;;;5091471;28;20487;-71
2022/06/18 10:51:26;;;;;;;9.93;3.80;;;;;;;;;;5091206;28;20055;-71
2022/06/18 10:53:54;;;;;;;7.80;3.63;;;;;;;;;;5090900;28;20055;-71
2022/06/18 10:56:24;;;;;;;4.97;3.25;;;;;;;;;;5091188;28;20515;-72
2022/06/18 10:58:52;;;;;;;8.80;4.18;;;;;;;;;;5089852;28;20072;-71
2022/06/18 11:01:34;;;;;;;6.70;2.92;;;;;;;;;;5091490;28;20089;-70
2022/06/18 11:04:03;;;;;;;4.35;3.10;;;;;;;;;;5077902;28;20119;-73
2022/06/18 11:06:30;;;;;;;5.78;3.35;;;;;;;;;;5091208;28;20148;-73
2022/06/18 11:08:58;;;;;;;5.93;3.17;;;;;;;;;;5090399;28;20512;-71
2022/06/18 11:11:29;;;;;;;7.32;3.10;;;;;;;;;;5091064;28;20157;-71
2022/06/18 11:14:06;;;;;;;6.10;2.65;;;;;;;;;;5090992;28;20135;-71
2022/06/18 11:16:40;;;;;;;5.95;3.28;;;;;;;;;;5090818;28;20084;-73
2022/06/18 11:19:15;;;;;;;4.80;3.10;;;;;;;;;;5091270;28;20044;-72
2022/06/18 11:21:45;;;;;;;5.57;2.53;;;;;;;;;;5091656;28;20499;-70
2022/06/18 11:24:12;;;;;;;8.75;2.88;;;;;;;;;;5090553;28;20083;-69
2022/06/18 11:26:40;;;;;;;7.30;2.95;;;;;;;;;;5091082;28;20051;-69
2022/06/18 11:29:11;;;;;;;8.77;4.30;;;;;;;;;;5091194;28;20051;-69
2022/06/18 11:31:43;;;;;;;8.75;3.78;;;;;;;;;;5091629;28;20043;-69
2022/06/18 11:34:18;;;;;;;6.50;3.65;;;;;;;;;;5091524;28;20073;-70
2022/06/18 11:36:50;;;;;;;6.22;2.85;;;;;;;;;;5091334;28;20080;-71
2022/06/18 11:39:25;;;;;;;7.72;2.65;;;;;;;;;;5091672;28;20110;-69
2022/06/18 11:41:52;;;;;;;8.30;3.22;;;;;;;;;;5091450;28;20519;-71
2022/06/18 11:44:25;;;;;;;8.90;3.10;;;;;;;;;;5091406;28;20079;-70
2022/06/18 11:47:01;;;;;;;5.32;3.03;;;;;;;;;;5091519;28;20101;-70
2022/06/18 11:49:40;;;;;;;9.40;3.72;;;;;;;;;;5091701;28;20079;-70
2022/06/18 11:52:12;;;;;;;6.25;2.63;;;;;;;;;;5090495;28;20460;-69
2022/06/18 11:54:51;;;;;;;8.85;3.30;;;;;;;;;;5090810;28;20047;-69
2022/06/18 11:57:18;;;;;;;6.80;2.45;;;;;;;;;;5091487;28;20477;-69
2022/06/18 11:59:52;;;;;;;9.35;2.65;;;;;;;;;;5091316;28;20074;-69
2022/06/18 12:02:37;;;;;;;9.07;3.80;;;;;;;;;;5091219;28;20131;-69
2022/06/18 12:05:11;;;;;;;7.40;3.03;;;;;;;;;;5094794;28;20040;-69
2022/06/18 12:07:41;;;;;;;8.65;2.92;;;;;;;;;;5095325;28;20044;-69
2022/06/18 12:10:12;;;;;;;6.28;2.92;;;;;;;;;;5094939;28;20072;-70
2022/06/18 12:12:38;;;;;;;5.88;2.95;;;;;;;;;;5094927;28;20507;-70
2022/06/18 12:15:08;;;;;;;7.82;2.72;;;;;;;;;;5094949;28;20056;-70
2022/06/18 12:17:39;;;;;;;8.48;2.95;;;;;;;;;;5094945;28;20079;-69
2022/06/18 12:20:14;;;;;;;13.95;3.50;;;;;;;;;;5077207;28;20048;-70
2022/06/18 12:23:07;;;;;;;7.85;3.00;;;;;;;;;;5074087;28;20048;-68
2022/06/18 12:25:38;;;;;;;8.10;3.17;;;;;;;;;;5062067;28;20523;-69
2022/06/18 12:28:10;;;;;;;6.43;2.72;;;;;;;;;;5094151;28;20654;-68
2022/06/18 12:30:39;;;;;;;8.98;3.10;;;;;;;;;;5092292;28;20051;-76
2022/06/18 12:33:05;;;;;;;7.93;2.95;;;;;;;;;;5092969;28;20048;-75
2022/06/18 12:35:32;;;;;;;7.38;2.78;;;;;;;;;;5094131;28;20067;-75
2022/06/18 12:38:18;;;;;;;6.60;2.45;;;;;;;;;;5093206;28;20466;-76
2022/06/18 12:40:59;;;;;;;8.27;2.55;;;;;;;;;;5094043;28;20164;-77
2022/06/18 12:43:29;;;;;;;6.30;2.78;;;;;;;;;;5091944;28;20090;-74
2022/06/18 12:46:08;;;;;;;3.78;2.40;;;;;;;;;;5093440;28;20135;-73
2022/06/18 12:48:42;;;;;;;6.75;2.15;;;;;;;;;;5093169;28;20093;-75
2022/06/18 12:51:11;;;;;;;7.63;2.67;;;;;;;;;;5092229;28;20480;-75
2022/06/18 12:54:09;;;;;;;4.63;2.60;;;;;;;;;;5093371;28;20093;-74
2022/06/18 12:56:38;;;;;;;6.78;2.58;;;;;;;;;;5076458;28;20109;-74
2022/06/18 12:59:11;;;;;;;6.93;2.40;;;;;;;;;;5093118;28;20127;-74
2022/06/18 13:01:50;;;;;;;6.68;2.78;;;;;;;;;;5092853;28;20075;-73
2022/06/18 13:04:16;;;;;;;5.72;2.42;;;;;;;;;;5093655;28;20050;-75
2022/06/18 13:07:02;;;;;;;5.95;2.20;;;;;;;;;;5093306;28;20048;-75
2022/06/18 13:09:35;;;;;;;5.38;1.88;;;;;;;;;;5092116;28;20471;-73
2022/06/18 13:12:04;;;;;;;4.22;2.22;;;;;;;;;;5078168;28;20044;-74
2022/06/18 13:14:31;;;;;;;8.57;2.75;;;;;;;;;;5092657;28;20131;-75
2022/06/18 13:17:16;;;;;;;6.30;2.47;;;;;;;;;;5092797;28;20044;-74
2022/06/18 13:19:45;;;;;;;3.85;2.05;;;;;;;;;;5092441;28;20080;-75
2022/06/18 13:22:12;;;;;;;4.55;2.15;;;;;;;;;;5092620;28;20495;-74
2022/06/18 13:30:21;;;;;;;6.20;1.90;;;;;;;;;;5090856;28;20051;-75
2022/06/18 13:32:59;;;;;;;5.75;2.30;;;;;;;;;;5092988;28;20083;-76
2022/06/18 13:35:36;;;;;;;3.58;1.95;;;;;;;;;;5093080;28;20471;-72
2022/06/18 13:38:02;;;;;;;;;;;;;;;;;;5092914;28;20083;-74
2022/06/18 13:40:33;;;;;;;5.47;2.17;;;;;;;;;;5091048;28;19985;-71
2022/06/18 13:43:03;;;;;;;6.38;2.65;;;;;;;;;;5092157;28;20503;-72
2022/06/18 13:45:37;;;;;;;4.88;2.00;;;;;;;;;;5092084;28;20131;-73
2022/06/18 13:48:09;;;;;;;5.35;2.25;;;;;;;;;;5090677;28;20519;-75
2022/06/18 13:50:46;;;;;;;4.65;1.90;;;;;;;;;;5092364;28;20055;-74
2022/06/18 13:53:33;;;;;;;5.03;1.85;;;;;;;;;;5092744;28;20098;-74
2022/06/18 13:56:00;;;;;;;6.30;2.13;;;;;;;;;;5092442;28;20105;-71
2022/06/18 13:58:29;;;;;;;4.18;2.03;;;;;;;;;;5091804;28;20555;-71
2022/06/18 14:01:06;;;;;;;3.83;1.98;;;;;;;;;;5090224;28;20173;-70
2022/06/18 14:03:36;;;;;;;5.28;2.40;;;;;;;;;;5090333;28;20048;-72
2022/06/18 14:06:05;;;;;;;4.95;1.98;;;;;;;;;;5092533;28;20043;-72
2022/06/18 14:08:39;;;;;;;5.05;2.10;;;;;;;;;;5091490;28;20128;-73
2022/06/18 14:11:07;;;;;;;5.72;1.80;;;;;;;;;;5091725;28;20086;-73
2022/06/18 14:13:47;;;;;;;2.53;1.50;;;;;;;;;;5090729;28;20075;-73
2022/06/18 14:16:25;;;;;;;4.15;1.90;;;;;;;;;;5092129;28;20044;-73
2022/06/18 14:18:51;;;;;;;5.20;1.98;;;;;;;;;;5089442;28;20048;-71
2022/06/18 14:21:25;;;;;;;5.28;1.85;;;;;;;;;;5081403;28;20048;-72
2022/06/18 14:23:56;;;;;;;5.43;1.70;;;;;;;;;;5091737;28;20511;-72
2022/06/18 14:26:22;;;;;;;4.45;1.80;;;;;;;;;;5092124;28;20131;-71
2022/06/18 14:28:49;;;;;;;4.43;1.55;;;;;;;;;;5089949;28;20558;-71
2022/06/18 14:31:24;;;;;;;5.68;1.65;;;;;;;;;;5092174;28;20118;-72
2022/06/18 14:34:03;;;;;;;4.32;1.70;;;;;;;;;;5089891;28;20085;-71
2022/06/18 14:36:33;;;;;;;3.55;1.88;;;;;;;;;;5091434;28;20073;-71
2022/06/18 14:39:01;;;;;;;3.90;1.90;;;;;;;;;;5090694;28;20135;-72
2022/06/18 14:41:37;;;;;;;5.50;2.10;;;;;;;;;;5091726;28;20055;-72
2022/06/18 14:44:16;;;;;;;5.00;1.80;;;;;;;;;;5091913;28;20113;-74
2022/06/18 14:46:59;;;;;;;7.00;2.70;;;;;;;;;;5091664;28;20300;-72
2022/06/18 14:49:31;;;;;;;6.25;2.88;;;;;;;;;;5091760;28;20056;-73
2022/06/18 14:52:07;;;;;;;5.90;2.30;;;;;;;;;;5091200;28;20553;-72
2022/06/18 14:54:36;;;;;;;3.00;1.50;;;;;;;;;;5091736;28;20052;-69
2022/06/18 14:57:03;;;;;;;8.77;1.75;;;;;;;;;;5085816;28;20080;-70
2022/06/18 14:59:34;;;;;;;3.88;1.33;;;;;;;;;;5082866;28;20040;-69
2022/06/18 15:02:03;;;;;;;6.40;1.55;;;;;;;;;;5091511;28;20048;-70
2022/06/18 15:04:34;;;;;;;12.65;2.15;;;;;;;;;;5090724;28;20452;-71